createdAt,value
2017-08-16T00:00:30.529Z,20.35
2017-08-16T00:01:40.993Z,20.35
2017-08-16T00:02:51.476Z,20.34
2017-08-16T00:04:01.947Z,20.28
2017-08-16T00:05:12.677Z,20.31
2017-08-16T00:06:23.173Z,20.31
2017-08-16T00:07:33.752Z,20.3
2017-08-16T00:08:43.851Z,20.27
2017-08-16T00:09:54.054Z,20.24
2017-08-16T00:11:04.756Z,20.17
2017-08-16T00:12:15.242Z,20.19
2017-08-16T00:13:25.397Z,20.11
2017-08-16T00:14:36.086Z,20.16
2017-08-16T00:15:46.536Z,20.11
2017-08-16T00:16:57.237Z,20.11
2017-08-16T00:18:07.756Z,20.11
2017-08-16T00:19:18.236Z,20.04
2017-08-16T00:20:28.697Z,20
2017-08-16T00:21:38.908Z,20.04
2017-08-16T00:22:49.638Z,19.98
2017-08-16T00:24:00.095Z,20.04
2017-08-16T00:25:10.802Z,20.03
2017-08-16T00:26:21.274Z,19.98
2017-08-16T00:27:31.784Z,20.01
2017-08-16T00:28:42.514Z,19.93
2017-08-16T00:29:53.023Z,20.07
2017-08-16T00:31:03.027Z,20.08
2017-08-16T00:32:13.302Z,20.08
2017-08-16T00:33:23.599Z,20.01
2017-08-16T00:34:34.354Z,20.03
2017-08-16T00:35:44.826Z,20
2017-08-16T00:36:55.351Z,19.95
2017-08-16T00:38:05.803Z,20.03
2017-08-16T00:39:16.334Z,19.97
2017-08-16T00:40:26.993Z,19.89
2017-08-16T00:41:37.479Z,19.9
2017-08-16T00:42:47.635Z,19.82
2017-08-16T00:43:58.117Z,19.83
2017-08-16T00:45:08.592Z,19.86
2017-08-16T00:46:19.343Z,19.82
2017-08-16T00:47:29.801Z,19.79
2017-08-16T00:48:40.334Z,19.79
2017-08-16T00:49:50.845Z,19.8
2017-08-16T00:51:01.008Z,19.74
2017-08-16T00:52:11.466Z,19.7
2017-08-16T00:53:21.974Z,19.63
2017-08-16T00:54:32.124Z,19.58
2017-08-16T00:55:42.637Z,19.65
2017-08-16T00:56:53.120Z,19.61
2017-08-16T00:58:04.173Z,19.56
2017-08-16T00:59:14.642Z,19.49
2017-08-16T01:00:25.229Z,19.61
2017-08-16T01:01:35.801Z,19.5
2017-08-16T01:02:46.304Z,19.52
2017-08-16T01:03:57.109Z,19.43
2017-08-16T01:05:07.599Z,19.42
2017-08-16T01:06:18.086Z,19.34
2017-08-16T01:07:28.227Z,19.34
2017-08-16T01:08:38.783Z,19.34
2017-08-16T01:09:49.490Z,19.31
2017-08-16T01:10:59.938Z,19.23
2017-08-16T01:12:10.145Z,19.25
2017-08-16T01:13:20.621Z,19.23
2017-08-16T01:14:31.097Z,19.25
2017-08-16T01:15:41.979Z,19.21
2017-08-16T01:16:51.769Z,19.19
2017-08-16T01:18:02.380Z,19.13
2017-08-16T01:19:12.823Z,19.13
2017-08-16T01:20:22.999Z,19.15
2017-08-16T01:21:33.648Z,19.21
2017-08-16T01:22:43.801Z,19.1
2017-08-16T01:23:54.279Z,19.12
2017-08-16T01:25:04.778Z,19.12
2017-08-16T01:26:15.482Z,19.16
2017-08-16T01:27:26.186Z,19.13
2017-08-16T01:28:36.659Z,19.18
2017-08-16T01:29:47.187Z,19.16
2017-08-16T01:30:57.638Z,19.08
2017-08-16T01:32:08.117Z,19.18
2017-08-16T01:33:18.525Z,19.12
2017-08-16T01:34:28.741Z,19.09
2017-08-16T01:35:39.444Z,19.05
2017-08-16T01:36:49.907Z,19.06
2017-08-16T01:38:00.337Z,18.93
2017-08-16T01:39:11.153Z,19.03
2017-08-16T01:40:21.341Z,18.97
2017-08-16T01:41:31.825Z,19.06
2017-08-16T01:42:42.287Z,19.08
2017-08-16T01:43:52.744Z,19.03
2017-08-16T01:45:03.451Z,18.97
2017-08-16T01:46:14.002Z,18.93
2017-08-16T01:47:24.176Z,18.95
2017-08-16T01:48:34.626Z,18.91
2017-08-16T01:49:44.793Z,18.93
2017-08-16T01:50:55.078Z,18.95
2017-08-16T01:52:05.293Z,18.82
2017-08-16T01:53:17.173Z,18.9
2017-08-16T01:54:27.637Z,18.87
2017-08-16T01:55:38.386Z,18.86
2017-08-16T01:56:49.079Z,18.82
2017-08-16T01:57:59.559Z,18.84
2017-08-16T01:59:10.001Z,18.8
2017-08-16T02:00:20.208Z,18.82
2017-08-16T02:01:30.875Z,18.8
2017-08-16T02:02:41.566Z,18.78
2017-08-16T02:03:52.039Z,18.79
2017-08-16T02:05:02.506Z,18.73
2017-08-16T02:06:12.950Z,18.78
2017-08-16T02:07:23.410Z,18.69
2017-08-16T02:08:34.096Z,18.71
2017-08-16T02:09:44.536Z,18.65
2017-08-16T02:10:55.364Z,18.69
2017-08-16T02:12:05.492Z,18.63
2017-08-16T02:13:15.621Z,18.6
2017-08-16T02:14:26.388Z,18.57
2017-08-16T02:15:36.999Z,18.57
2017-08-16T02:16:47.457Z,18.6
2017-08-16T02:17:57.887Z,18.56
2017-08-16T02:19:08.327Z,18.55
2017-08-16T02:20:19.062Z,18.59
2017-08-16T02:21:29.571Z,18.49
2017-08-16T02:22:40.041Z,18.52
2017-08-16T02:23:50.525Z,18.47
2017-08-16T02:25:00.984Z,18.52
2017-08-16T02:26:11.478Z,18.5
2017-08-16T02:27:21.913Z,18.41
2017-08-16T02:28:32.074Z,18.41
2017-08-16T02:29:42.248Z,18.49
2017-08-16T02:30:52.843Z,18.37
2017-08-16T02:32:03.605Z,18.28
2017-08-16T02:33:14.092Z,18.28
2017-08-16T02:34:24.560Z,18.49
2017-08-16T02:35:35.043Z,18.3
2017-08-16T02:36:45.789Z,18.28
2017-08-16T02:37:56.168Z,18.3
2017-08-16T02:39:06.832Z,18.12
2017-08-16T02:40:17.000Z,18.05
2017-08-16T02:41:27.502Z,17.94
2017-08-16T02:42:37.973Z,18
2017-08-16T02:43:48.660Z,17.98
2017-08-16T02:44:58.387Z,18.04
2017-08-16T02:46:08.870Z,17.95
2017-08-16T02:47:19.371Z,18.01
2017-08-16T02:48:29.900Z,18
2017-08-16T02:49:40.843Z,18.05
2017-08-16T02:50:51.548Z,18.19
2017-08-16T02:52:01.694Z,18.17
2017-08-16T02:53:12.196Z,18.13
2017-08-16T02:54:22.681Z,18.07
2017-08-16T02:55:33.618Z,18.09
2017-08-16T02:56:44.075Z,18.05
2017-08-16T02:57:54.526Z,18.02
2017-08-16T02:59:04.994Z,18.02
2017-08-16T03:00:15.447Z,17.94
2017-08-16T03:01:26.166Z,18.02
2017-08-16T03:02:36.864Z,17.91
2017-08-16T03:03:47.045Z,18
2017-08-16T03:04:57.588Z,18
2017-08-16T03:06:08.046Z,17.95
2017-08-16T03:07:18.823Z,17.94
2017-08-16T03:08:29.545Z,18.01
2017-08-16T03:09:40.003Z,17.97
2017-08-16T03:10:50.467Z,17.94
2017-08-16T03:12:00.621Z,17.89
2017-08-16T03:13:11.448Z,17.98
2017-08-16T03:14:21.911Z,17.94
2017-08-16T03:15:32.606Z,17.92
2017-08-16T03:16:42.470Z,17.97
2017-08-16T03:17:52.668Z,17.98
2017-08-16T03:19:03.481Z,17.97
2017-08-16T03:20:13.963Z,17.98
2017-08-16T03:21:24.436Z,17.94
2017-08-16T03:22:34.944Z,17.91
2017-08-16T03:23:45.479Z,17.89
2017-08-16T03:24:56.374Z,17.89
2017-08-16T03:26:06.549Z,17.89
2017-08-16T03:27:17.130Z,17.91
2017-08-16T03:28:27.683Z,17.92
2017-08-16T03:29:37.854Z,17.91
2017-08-16T03:30:48.592Z,17.91
2017-08-16T03:31:59.088Z,17.87
2017-08-16T03:33:09.280Z,17.92
2017-08-16T03:34:19.459Z,17.95
2017-08-16T03:35:29.939Z,17.94
2017-08-16T03:36:40.673Z,17.95
2017-08-16T03:37:50.696Z,17.97
2017-08-16T03:39:01.078Z,18.01
2017-08-16T03:40:11.528Z,17.94
2017-08-16T03:41:21.748Z,18.04
2017-08-16T03:42:32.165Z,17.8
2017-08-16T03:43:42.638Z,18
2017-08-16T03:44:53.131Z,17.87
2017-08-16T03:46:03.594Z,17.91
2017-08-16T03:47:14.071Z,17.85
2017-08-16T03:48:24.806Z,17.91
2017-08-16T03:49:35.269Z,17.83
2017-08-16T03:50:45.720Z,17.68
2017-08-16T03:51:55.848Z,17.76
2017-08-16T03:53:06.000Z,17.86
2017-08-16T03:54:16.718Z,17.83
2017-08-16T03:55:27.207Z,17.77
2017-08-16T03:56:37.451Z,17.92
2017-08-16T03:57:47.458Z,17.87
2017-08-16T03:58:57.748Z,17.86
2017-08-16T04:00:08.504Z,17.83
2017-08-16T04:01:18.664Z,17.79
2017-08-16T04:02:29.418Z,17.87
2017-08-16T04:03:39.903Z,17.76
2017-08-16T04:04:50.413Z,17.76
2017-08-16T04:06:01.106Z,17.73
2017-08-16T04:07:11.113Z,17.72
2017-08-16T04:08:21.816Z,17.73
2017-08-16T04:09:32.273Z,17.76
2017-08-16T04:10:42.765Z,17.76
2017-08-16T04:11:53.537Z,17.72
2017-08-16T04:13:04.045Z,17.7
2017-08-16T04:14:14.218Z,17.73
2017-08-16T04:15:24.671Z,17.68
2017-08-16T04:16:35.236Z,17.61
2017-08-16T04:17:45.648Z,17.61
2017-08-16T04:18:56.132Z,17.64
2017-08-16T04:20:06.588Z,17.6
2017-08-16T04:21:17.092Z,17.6
2017-08-16T04:22:27.575Z,17.61
2017-08-16T04:23:38.522Z,17.57
2017-08-16T04:24:48.990Z,17.64
2017-08-16T04:25:59.496Z,17.61
2017-08-16T04:27:10.100Z,17.6
2017-08-16T04:28:20.603Z,17.72
2017-08-16T04:29:31.398Z,17.76
2017-08-16T04:30:41.566Z,17.75
2017-08-16T04:31:52.025Z,17.73
2017-08-16T04:33:02.562Z,17.73
2017-08-16T04:34:13.225Z,17.75
2017-08-16T04:35:23.981Z,17.75
2017-08-16T04:36:34.440Z,17.76
2017-08-16T04:37:45.128Z,17.75
2017-08-16T04:38:55.595Z,17.77
2017-08-16T04:40:06.068Z,17.73
2017-08-16T04:41:16.769Z,17.73
2017-08-16T04:42:26.641Z,17.76
2017-08-16T04:43:37.167Z,17.73
2017-08-16T04:44:47.624Z,17.75
2017-08-16T04:45:58.096Z,17.7
2017-08-16T04:47:08.524Z,17.73
2017-08-16T04:48:19.051Z,17.76
2017-08-16T04:49:29.494Z,17.75
2017-08-16T04:50:40.193Z,17.73
2017-08-16T04:51:50.338Z,17.75
2017-08-16T04:53:01.151Z,17.86
2017-08-16T04:54:11.611Z,17.77
2017-08-16T04:55:21.803Z,17.86
2017-08-16T04:56:32.256Z,17.85
2017-08-16T04:57:42.762Z,17.86
2017-08-16T04:58:53.462Z,17.83
2017-08-16T05:00:03.924Z,17.82
2017-08-16T05:01:14.397Z,17.85
2017-08-16T05:02:24.424Z,17.75
2017-08-16T05:03:34.881Z,17.68
2017-08-16T05:04:45.823Z,17.65
2017-08-16T05:05:56.275Z,17.62
2017-08-16T05:07:06.916Z,17.61
2017-08-16T05:08:17.412Z,17.54
2017-08-16T05:09:27.868Z,17.55
2017-08-16T05:10:38.620Z,17.5
2017-08-16T05:11:49.081Z,17.49
2017-08-16T05:12:59.574Z,17.47
2017-08-16T05:14:10.069Z,17.43
2017-08-16T05:15:20.548Z,17.4
2017-08-16T05:16:30.931Z,17.36
2017-08-16T05:17:41.499Z,17.4
2017-08-16T05:18:52.600Z,17.38
2017-08-16T05:20:03.061Z,17.38
2017-08-16T05:21:14.335Z,17.36
2017-08-16T05:22:25.149Z,17.39
2017-08-16T05:23:35.632Z,17.32
2017-08-16T05:24:46.378Z,17.35
2017-08-16T05:25:56.864Z,17.46
2017-08-16T05:27:07.331Z,17.38
2017-08-16T05:28:18.079Z,17.39
2017-08-16T05:29:28.546Z,17.38
2017-08-16T05:30:39.039Z,17.38
2017-08-16T05:31:49.507Z,17.39
2017-08-16T05:32:59.365Z,17.36
2017-08-16T05:34:10.187Z,17.38
2017-08-16T05:35:20.636Z,17.39
2017-08-16T05:36:31.094Z,17.42
2017-08-16T05:37:41.614Z,17.4
2017-08-16T05:38:52.323Z,17.43
2017-08-16T05:40:02.681Z,17.4
2017-08-16T05:41:13.143Z,17.42
2017-08-16T05:42:23.653Z,17.47
2017-08-16T05:43:34.125Z,17.45
2017-08-16T05:44:44.284Z,17.47
2017-08-16T05:45:54.562Z,17.47
2017-08-16T05:47:05.018Z,17.5
2017-08-16T05:48:15.487Z,17.47
2017-08-16T05:49:25.960Z,17.52
2017-08-16T05:50:36.465Z,17.52
2017-08-16T05:51:47.171Z,17.55
2017-08-16T05:52:57.780Z,17.55
2017-08-16T05:54:08.264Z,17.57
2017-08-16T05:55:18.530Z,17.52
2017-08-16T05:56:29.087Z,17.52
2017-08-16T05:57:40.042Z,17.54
2017-08-16T05:58:50.521Z,17.49
2017-08-16T06:00:00.747Z,17.52
2017-08-16T06:01:10.889Z,17.49
2017-08-16T06:02:20.903Z,17.5
2017-08-16T06:03:31.622Z,17.47
2017-08-16T06:04:42.075Z,17.43
2017-08-16T06:05:52.219Z,17.39
2017-08-16T06:07:02.751Z,17.43
2017-08-16T06:08:13.221Z,17.39
2017-08-16T06:09:23.952Z,17.31
2017-08-16T06:10:34.435Z,17.32
2017-08-16T06:11:44.955Z,17.39
2017-08-16T06:12:55.480Z,17.45
2017-08-16T06:14:05.938Z,17.45
2017-08-16T06:15:16.685Z,17.43
2017-08-16T06:16:27.194Z,17.43
2017-08-16T06:17:37.340Z,17.45
2017-08-16T06:18:47.794Z,17.38
2017-08-16T06:19:58.331Z,17.27
2017-08-16T06:21:08.770Z,17.28
2017-08-16T06:22:19.292Z,17.24
2017-08-16T06:23:29.992Z,17.24
2017-08-16T06:24:40.167Z,17.19
2017-08-16T06:25:50.656Z,17.19
2017-08-16T06:27:01.366Z,17.23
2017-08-16T06:28:11.215Z,17.21
2017-08-16T06:29:21.677Z,17.21
2017-08-16T06:30:32.161Z,17.16
2017-08-16T06:31:42.362Z,17.19
2017-08-16T06:32:53.094Z,17.17
2017-08-16T06:34:03.582Z,17.19
2017-08-16T06:35:14.176Z,17.17
2017-08-16T06:36:24.654Z,17.31
2017-08-16T06:37:35.120Z,17.3
2017-08-16T06:38:45.863Z,17.19
2017-08-16T06:39:56.473Z,17.31
2017-08-16T06:41:07.131Z,17.36
2017-08-16T06:42:17.612Z,17.35
2017-08-16T06:43:28.074Z,17.49
2017-08-16T06:44:38.813Z,17.5
2017-08-16T06:45:48.942Z,17.57
2017-08-16T06:46:59.638Z,17.57
2017-08-16T06:48:10.126Z,17.58
2017-08-16T06:49:20.608Z,17.65
2017-08-16T06:50:31.337Z,17.64
2017-08-16T06:51:41.791Z,17.6
2017-08-16T06:52:51.840Z,17.6
2017-08-16T06:54:02.352Z,17.62
2017-08-16T06:55:12.815Z,17.6
2017-08-16T06:56:23.569Z,17.62
2017-08-16T06:57:34.049Z,17.67
2017-08-16T06:58:44.216Z,17.61
2017-08-16T06:59:54.747Z,17.65
2017-08-16T07:01:05.467Z,17.72
2017-08-16T07:02:15.958Z,17.68
2017-08-16T07:03:25.985Z,17.64
2017-08-16T07:04:36.469Z,17.64
2017-08-16T07:05:46.918Z,17.62
2017-08-16T07:06:56.969Z,17.61
2017-08-16T07:08:07.709Z,17.61
2017-08-16T07:09:18.258Z,17.57
2017-08-16T07:10:28.724Z,17.6
2017-08-16T07:11:38.873Z,17.54
2017-08-16T07:12:49.465Z,17.61
2017-08-16T07:13:59.921Z,17.65
2017-08-16T07:15:10.579Z,17.75
2017-08-16T07:16:21.064Z,17.7
2017-08-16T07:17:31.071Z,17.79
2017-08-16T07:18:41.240Z,17.77
2017-08-16T07:19:52.088Z,17.86
2017-08-16T07:21:02.550Z,17.91
2017-08-16T07:22:12.712Z,18.01
2017-08-16T07:23:23.197Z,17.87
2017-08-16T07:24:33.661Z,17.98
2017-08-16T07:25:44.384Z,18.15
2017-08-16T07:26:54.842Z,18.05
2017-08-16T07:28:05.339Z,18.25
2017-08-16T07:29:15.845Z,18.25
2017-08-16T07:30:26.320Z,18.4
2017-08-16T07:31:37.030Z,18.26
2017-08-16T07:32:47.283Z,18.35
2017-08-16T07:33:57.023Z,18.5
2017-08-16T07:35:07.252Z,18.62
2017-08-16T07:36:17.730Z,18.67
2017-08-16T07:37:28.151Z,18.65
2017-08-16T07:38:38.737Z,18.71
2017-08-16T07:39:49.203Z,18.65
2017-08-16T07:40:59.795Z,18.67
2017-08-16T07:42:09.957Z,18.67
2017-08-16T07:43:20.729Z,18.75
2017-08-16T07:44:30.578Z,18.69
2017-08-16T07:45:40.738Z,18.78
2017-08-16T07:46:51.215Z,18.75
2017-08-16T07:48:01.347Z,18.72
2017-08-16T07:49:11.817Z,18.69
2017-08-16T07:50:22.015Z,18.79
2017-08-16T07:51:32.167Z,18.84
2017-08-16T07:52:42.667Z,18.91
2017-08-16T07:53:53.189Z,18.98
2017-08-16T07:55:03.925Z,19.1
2017-08-16T07:56:14.419Z,19.13
2017-08-16T07:57:24.897Z,19.12
2017-08-16T07:58:35.365Z,19.27
2017-08-16T07:59:45.854Z,19.31
2017-08-16T08:00:56.809Z,19.31
2017-08-16T08:02:07.269Z,19.46
2017-08-16T08:03:17.426Z,19.56
2017-08-16T08:04:27.903Z,19.68
2017-08-16T08:05:38.381Z,19.67
2017-08-16T08:06:49.077Z,19.89
2017-08-16T08:07:59.696Z,20.08
2017-08-16T08:09:10.219Z,20.31
2017-08-16T08:10:20.442Z,20.39
2017-08-16T08:11:30.909Z,20.51
2017-08-16T08:12:41.378Z,20.72
2017-08-16T08:13:51.848Z,20.78
2017-08-16T08:15:02.321Z,20.76
2017-08-16T08:16:12.491Z,20.86
2017-08-16T08:17:22.973Z,20.82
2017-08-16T08:18:33.721Z,21.04
2017-08-16T08:19:43.891Z,21.22
2017-08-16T08:20:54.379Z,21.35
2017-08-16T08:22:04.858Z,21.53
2017-08-16T08:23:15.463Z,21.73
2017-08-16T08:24:25.781Z,21.87
2017-08-16T08:25:36.249Z,22.06
2017-08-16T08:26:46.718Z,22.08
2017-08-16T08:27:57.281Z,21.98
2017-08-16T08:29:07.766Z,22.13
2017-08-16T08:30:18.591Z,22.12
2017-08-16T08:31:29.071Z,22.05
2017-08-16T08:32:39.218Z,21.97
2017-08-16T08:33:49.674Z,21.73
2017-08-16T08:35:00.167Z,21.61
2017-08-16T08:36:10.860Z,21.64
2017-08-16T08:37:21.337Z,21.5
2017-08-16T08:38:32.073Z,21.38
2017-08-16T08:39:42.548Z,21.28
2017-08-16T08:40:53.129Z,21.13
2017-08-16T08:42:03.872Z,21.12
2017-08-16T08:43:14.566Z,20.98
2017-08-16T08:44:24.725Z,21.06
2017-08-16T08:45:35.207Z,21.13
2017-08-16T08:46:45.557Z,21.25
2017-08-16T08:47:56.220Z,21.38
2017-08-16T08:49:06.682Z,21.54
2017-08-16T08:50:17.175Z,21.64
2017-08-16T08:51:27.665Z,21.6
2017-08-16T08:52:38.122Z,21.76
2017-08-16T08:53:49.016Z,21.75
2017-08-16T08:54:59.535Z,21.78
2017-08-16T08:56:10.006Z,21.84
2017-08-16T08:57:20.487Z,21.87
2017-08-16T08:58:30.952Z,22.01
2017-08-16T08:59:41.682Z,21.94
2017-08-16T09:00:52.192Z,22.02
2017-08-16T09:02:02.345Z,22.02
2017-08-16T09:03:12.822Z,22.05
2017-08-16T09:04:22.713Z,21.97
2017-08-16T09:05:33.553Z,21.87
2017-08-16T09:06:44.022Z,21.69
2017-08-16T09:07:54.509Z,21.64
2017-08-16T09:09:04.964Z,21.46
2017-08-16T09:10:15.451Z,21.43
2017-08-16T09:11:25.770Z,21.4
2017-08-16T09:12:35.920Z,21.38
2017-08-16T09:13:46.481Z,21.31
2017-08-16T09:14:56.961Z,21.3
2017-08-16T09:16:07.420Z,21.18
2017-08-16T09:17:18.257Z,21.22
2017-08-16T09:18:28.748Z,21.35
2017-08-16T09:19:39.224Z,21.38
2017-08-16T09:20:49.685Z,21.84
2017-08-16T09:22:00.209Z,22.13
2017-08-16T09:23:10.933Z,22.33
2017-08-16T09:24:21.389Z,22.63
2017-08-16T09:25:31.549Z,22.87
2017-08-16T09:26:42.008Z,23.01
2017-08-16T09:27:52.507Z,23.23
2017-08-16T09:29:02.917Z,23.58
2017-08-16T09:30:13.391Z,23.65
2017-08-16T09:31:23.916Z,24
2017-08-16T09:32:34.524Z,24.02
2017-08-16T09:33:44.992Z,23.94
2017-08-16T09:34:55.744Z,23.77
2017-08-16T09:36:06.369Z,23.64
2017-08-16T09:37:16.549Z,23.36
2017-08-16T09:38:27.012Z,23.14
2017-08-16T09:39:37.181Z,23.01
2017-08-16T09:40:48.045Z,23.01
2017-08-16T09:41:58.533Z,22.86
2017-08-16T09:43:09.042Z,22.76
2017-08-16T09:44:19.512Z,22.71
2017-08-16T09:45:29.990Z,22.67
2017-08-16T09:46:40.750Z,22.52
2017-08-16T09:47:51.308Z,22.35
2017-08-16T09:49:01.902Z,22.33
2017-08-16T09:50:12.518Z,22.46
2017-08-16T09:51:22.995Z,22.5
2017-08-16T09:52:33.865Z,22.57
2017-08-16T09:53:44.167Z,22.45
2017-08-16T09:54:54.908Z,22.43
2017-08-16T09:56:05.432Z,22.33
2017-08-16T09:57:15.627Z,22.34
2017-08-16T09:58:26.370Z,22.3
2017-08-16T09:59:37.081Z,22.31
2017-08-16T10:00:47.083Z,22.46
2017-08-16T10:01:57.640Z,22.64
2017-08-16T10:03:08.088Z,22.53
2017-08-16T10:04:18.549Z,22.64
2017-08-16T10:05:28.756Z,22.79
2017-08-16T10:06:39.233Z,22.99
2017-08-16T10:07:49.725Z,23.13
2017-08-16T10:09:00.186Z,23.32
2017-08-16T10:10:10.591Z,23.43
2017-08-16T10:11:21.062Z,23.61
2017-08-16T10:12:31.557Z,23.68
2017-08-16T10:13:41.785Z,23.42
2017-08-16T10:14:52.259Z,23.21
2017-08-16T10:16:03.008Z,23.09
2017-08-16T10:17:13.502Z,22.87
2017-08-16T10:18:23.599Z,22.7
2017-08-16T10:19:34.052Z,22.61
2017-08-16T10:20:44.547Z,22.52
2017-08-16T10:21:55.303Z,22.45
2017-08-16T10:23:05.832Z,22.39
2017-08-16T10:24:16.329Z,22.28
2017-08-16T10:25:26.802Z,22.33
2017-08-16T10:26:37.291Z,22.34
2017-08-16T10:27:47.994Z,22.39
2017-08-16T10:28:58.632Z,22.7
2017-08-16T10:30:10.087Z,22.89
2017-08-16T10:31:20.598Z,23.01
2017-08-16T10:32:31.054Z,23.05
2017-08-16T10:33:41.809Z,23.38
2017-08-16T10:34:52.424Z,23.43
2017-08-16T10:36:02.895Z,23.45
2017-08-16T10:37:13.411Z,23.55
2017-08-16T10:38:23.888Z,23.53
2017-08-16T10:39:34.731Z,23.45
2017-08-16T10:40:45.393Z,23.16
2017-08-16T10:41:55.902Z,23.17
2017-08-16T10:43:06.382Z,22.87
2017-08-16T10:44:16.581Z,22.55
2017-08-16T10:45:27.521Z,22.39
2017-08-16T10:46:38.012Z,22.34
2017-08-16T10:47:48.535Z,22.4
2017-08-16T10:48:59.022Z,22.7
2017-08-16T10:50:09.487Z,23.06
2017-08-16T10:51:20.262Z,23.31
2017-08-16T10:52:30.737Z,23.65
2017-08-16T10:53:41.469Z,24.15
2017-08-16T10:54:51.511Z,24.73
2017-08-16T10:56:02.116Z,25.27
2017-08-16T10:57:12.967Z,25.66
2017-08-16T10:58:23.429Z,26.24
2017-08-16T10:59:33.620Z,26.33
2017-08-16T11:00:43.465Z,26.31
2017-08-16T11:01:53.962Z,26.29
2017-08-16T11:03:04.689Z,25.94
2017-08-16T11:04:14.866Z,25.71
2017-08-16T11:05:25.366Z,25.81
2017-08-16T11:06:35.833Z,25.78
2017-08-16T11:07:46.324Z,25.68
2017-08-16T11:08:56.752Z,25.61
2017-08-16T11:10:07.224Z,25.44
2017-08-16T11:11:17.402Z,25.27
2017-08-16T11:12:27.865Z,25.1
2017-08-16T11:13:38.604Z,24.9
2017-08-16T11:14:49.324Z,24.67
2017-08-16T11:16:00.108Z,24.43
2017-08-16T11:17:10.641Z,24.05
2017-08-16T11:18:21.188Z,23.77
2017-08-16T11:19:31.546Z,23.88
2017-08-16T11:20:42.279Z,24.02
2017-08-16T11:21:52.472Z,24.24
2017-08-16T11:23:02.954Z,24.55
2017-08-16T11:24:13.514Z,24.78
2017-08-16T11:25:24.017Z,24.9
2017-08-16T11:26:34.893Z,25.02
2017-08-16T11:27:45.379Z,25.21
2017-08-16T11:28:55.861Z,25.25
2017-08-16T11:30:06.438Z,25.34
2017-08-16T11:31:16.910Z,25.27
2017-08-16T11:32:27.649Z,25.17
2017-08-16T11:33:38.177Z,25.09
2017-08-16T11:34:48.702Z,24.88
2017-08-16T11:35:59.198Z,24.69
2017-08-16T11:37:09.393Z,24.54
2017-08-16T11:38:20.156Z,24.24
2017-08-16T11:39:30.646Z,24.05
2017-08-16T11:40:41.151Z,23.82
2017-08-16T11:41:51.649Z,23.61
2017-08-16T11:43:01.839Z,23.42
2017-08-16T11:44:12.609Z,23.16
2017-08-16T11:45:23.088Z,23.08
2017-08-16T11:46:33.237Z,23.01
2017-08-16T11:47:43.397Z,22.76
2017-08-16T11:48:53.574Z,22.64
2017-08-16T11:50:04.287Z,22.5
2017-08-16T11:51:14.439Z,22.61
2017-08-16T11:52:24.926Z,22.75
2017-08-16T11:53:35.406Z,22.79
2017-08-16T11:54:45.872Z,22.86
2017-08-16T11:55:56.695Z,23.17
2017-08-16T11:57:06.859Z,23.45
2017-08-16T11:58:17.033Z,23.7
2017-08-16T11:59:27.509Z,24.07
2017-08-16T12:00:37.975Z,24.29
2017-08-16T12:01:48.803Z,24.8
2017-08-16T12:02:59.326Z,25
2017-08-16T12:04:10.094Z,25.15
2017-08-16T12:05:20.588Z,25.19
2017-08-16T12:06:30.613Z,25.24
2017-08-16T12:07:41.438Z,25.39
2017-08-16T12:08:51.950Z,25.71
2017-08-16T12:10:02.539Z,25.76
2017-08-16T12:11:12.770Z,25.78
2017-08-16T12:12:23.266Z,25.96
2017-08-16T12:13:33.999Z,26.25
2017-08-16T12:14:44.489Z,26.31
2017-08-16T12:15:55.005Z,26.46
2017-08-16T12:17:05.522Z,26.64
2017-08-16T12:18:16.014Z,26.59
2017-08-16T12:19:26.565Z,26.48
2017-08-16T12:20:37.306Z,26.43
2017-08-16T12:21:47.761Z,26.36
2017-08-16T12:22:58.338Z,26.16
2017-08-16T12:24:08.870Z,25.97
2017-08-16T12:25:19.698Z,25.82
2017-08-16T12:26:30.179Z,25.69
2017-08-16T12:27:40.773Z,25.77
2017-08-16T12:28:51.272Z,25.68
2017-08-16T12:30:01.501Z,25.65
2017-08-16T12:31:12.278Z,25.54
2017-08-16T12:32:22.911Z,25.42
2017-08-16T12:33:33.364Z,25.34
2017-08-16T12:34:43.871Z,25.34
2017-08-16T12:35:54.424Z,25.36
2017-08-16T12:37:05.220Z,25.32
2017-08-16T12:38:15.715Z,25.28
2017-08-16T12:39:26.224Z,25.34
2017-08-16T12:40:36.436Z,25.42
2017-08-16T12:41:47.200Z,25.54
2017-08-16T12:42:57.337Z,25.66
2017-08-16T12:44:07.839Z,25.66
2017-08-16T12:45:50.154Z,25.87
2017-08-16T12:47:00.687Z,25.93
2017-08-16T12:48:11.385Z,26.02
2017-08-16T12:49:21.556Z,26.09
2017-08-16T12:50:31.738Z,26.02
2017-08-16T12:51:42.202Z,25.99
2017-08-16T12:52:52.368Z,25.81
2017-08-16T12:54:03.130Z,25.69
2017-08-16T12:55:13.693Z,25.5
2017-08-16T12:56:24.163Z,25.27
2017-08-16T12:57:34.352Z,25.22
2017-08-16T12:58:44.635Z,25.25
2017-08-16T12:59:55.414Z,25.18
2017-08-16T13:01:05.911Z,25.1
2017-08-16T13:02:16.093Z,25.18
2017-08-16T13:03:26.597Z,25.25
2017-08-16T13:04:37.355Z,25.25
2017-08-16T13:05:48.091Z,25.28
2017-08-16T13:06:58.148Z,25.31
2017-08-16T13:08:08.685Z,25.32
2017-08-16T13:09:19.235Z,25.54
2017-08-16T13:10:29.463Z,25.58
2017-08-16T13:11:40.204Z,25.58
2017-08-16T13:12:50.689Z,25.49
2017-08-16T13:14:01.323Z,25.56
2017-08-16T13:15:12.057Z,25.44
2017-08-16T13:16:22.538Z,25.42
2017-08-16T13:17:33.397Z,25.31
2017-08-16T13:18:43.898Z,25.21
2017-08-16T13:19:54.415Z,25.02
2017-08-16T13:21:04.109Z,25
2017-08-16T13:22:14.140Z,24.97
2017-08-16T13:23:25.013Z,24.91
2017-08-16T13:24:35.510Z,24.92
2017-08-16T13:25:45.981Z,24.82
2017-08-16T13:26:56.459Z,24.8
2017-08-16T13:28:07.001Z,24.78
2017-08-16T13:29:17.788Z,24.82
2017-08-16T13:30:28.279Z,24.9
2017-08-16T13:31:38.810Z,24.8
2017-08-16T13:32:49.301Z,24.87
2017-08-16T13:33:59.805Z,24.87
2017-08-16T13:35:10.440Z,24.9
2017-08-16T13:36:21.920Z,24.99
2017-08-16T13:37:32.438Z,24.9
2017-08-16T13:38:42.976Z,24.91
2017-08-16T13:39:53.451Z,24.81
2017-08-16T13:41:04.171Z,24.73
2017-08-16T13:42:14.743Z,24.73
2017-08-16T13:43:24.946Z,24.65
2017-08-16T13:44:35.128Z,24.62
2017-08-16T13:45:45.388Z,24.62
2017-08-16T13:46:56.142Z,24.63
2017-08-16T13:48:06.788Z,24.7
2017-08-16T13:49:17.495Z,24.67
2017-08-16T13:50:27.987Z,24.63
2017-08-16T13:51:38.470Z,24.62
2017-08-16T13:52:49.233Z,24.51
2017-08-16T13:53:59.710Z,24.29
2017-08-16T13:55:09.878Z,24.24
2017-08-16T13:56:20.376Z,24.17
2017-08-16T13:57:30.889Z,24.25
2017-08-16T13:58:41.681Z,24.22
2017-08-16T13:59:51.720Z,24.2
2017-08-16T14:01:02.359Z,24.02
2017-08-16T14:02:12.889Z,24.09
2017-08-16T14:03:23.410Z,24.13
2017-08-16T14:04:34.220Z,24.16
2017-08-16T14:05:44.804Z,24.13
2017-08-16T14:06:55.297Z,24.15
2017-08-16T14:08:05.487Z,24.22
2017-08-16T14:09:15.627Z,24.22
2017-08-16T14:10:26.393Z,24.25
2017-08-16T14:11:37.104Z,24.16
2017-08-16T14:12:47.570Z,24.16
2017-08-16T14:13:58.083Z,24.07
2017-08-16T14:15:08.809Z,24.02
2017-08-16T14:16:19.105Z,24.02
2017-08-16T14:17:29.290Z,23.98
2017-08-16T14:18:39.963Z,23.88
2017-08-16T14:19:50.861Z,23.85
2017-08-16T14:21:01.359Z,23.79
2017-08-16T14:22:11.765Z,23.69
2017-08-16T14:23:22.263Z,23.69
2017-08-16T14:24:32.804Z,23.6
2017-08-16T14:25:42.983Z,23.58
2017-08-16T14:26:53.482Z,23.69
2017-08-16T14:28:04.346Z,23.65
2017-08-16T14:29:15.061Z,23.64
2017-08-16T14:30:25.656Z,23.68
2017-08-16T14:31:36.160Z,23.75
2017-08-16T14:32:46.747Z,23.72
2017-08-16T14:33:57.185Z,23.69
2017-08-16T14:35:07.703Z,23.69
2017-08-16T14:36:18.205Z,23.76
2017-08-16T14:37:28.709Z,23.79
2017-08-16T14:38:39.084Z,23.82
2017-08-16T14:39:49.847Z,23.79
2017-08-16T14:41:00.329Z,23.79
2017-08-16T14:42:10.862Z,23.88
2017-08-16T14:43:20.926Z,23.88
2017-08-16T14:44:31.155Z,23.85
2017-08-16T14:45:41.929Z,23.83
2017-08-16T14:46:51.972Z,23.95
2017-08-16T14:48:02.441Z,24.02
2017-08-16T14:49:13.060Z,23.94
2017-08-16T14:50:23.559Z,23.95
2017-08-16T14:51:34.580Z,23.94
2017-08-16T14:52:45.181Z,23.92
2017-08-16T14:53:55.691Z,23.94
2017-08-16T14:55:06.257Z,23.9
2017-08-16T14:56:16.528Z,23.91
2017-08-16T14:57:27.005Z,23.91
2017-08-16T14:58:37.709Z,23.85
2017-08-16T14:59:48.203Z,23.76
2017-08-16T15:00:58.677Z,23.8
2017-08-16T15:02:09.194Z,23.79
2017-08-16T15:03:20.076Z,23.75
2017-08-16T15:04:30.541Z,23.69
2017-08-16T15:05:41.020Z,23.75
2017-08-16T15:06:51.542Z,23.79
2017-08-16T15:08:01.979Z,23.75
2017-08-16T15:09:12.385Z,23.8
2017-08-16T15:10:22.871Z,23.87
2017-08-16T15:11:33.077Z,23.79